sensor_id;sensor_type;location;lat;lon;timestamp;P1;durP1;ratioP1;P2;durP2;ratioP2
29908;SDS011;36247;51.952;6.146;2023-08-17T00:01:49;8.57;;;3.78;;
29908;SDS011;36247;51.952;6.146;2023-08-17T00:04:16;13.65;;;3.78;;
29908;SDS011;36247;51.952;6.146;2023-08-17T00:06:42;9.07;;;3.55;;
29908;SDS011;36247;51.952;6.146;2023-08-17T00:09:07;15.95;;;4.68;;
29908;SDS011;36247;51.952;6.146;2023-08-17T00:11:33;12.02;;;3.50;;
29908;SDS011;36247;51.952;6.146;2023-08-17T00:13:59;8.13;;;3.42;;
29908;SDS011;36247;51.952;6.146;2023-08-17T00:16:25;11.02;;;3.92;;
29908;SDS011;36247;51.952;6.146;2023-08-17T00:18:51;7.97;;;3.45;;
29908;SDS011;36247;51.952;6.146;2023-08-17T00:21:16;6.35;;;3.53;;
29908;SDS011;36247;51.952;6.146;2023-08-17T00:23:42;7.63;;;3.78;;
29908;SDS011;36247;51.952;6.146;2023-08-17T00:26:08;6.70;;;4.03;;
29908;SDS011;36247;51.952;6.146;2023-08-17T00:28:34;8.00;;;3.28;;
29908;SDS011;36247;51.952;6.146;2023-08-17T00:31:00;7.75;;;3.45;;
29908;SDS011;36247;51.952;6.146;2023-08-17T00:33:26;8.60;;;4.07;;
29908;SDS011;36247;51.952;6.146;2023-08-17T00:35:51;8.20;;;3.75;;
29908;SDS011;36247;51.952;6.146;2023-08-17T00:38:17;7.93;;;3.72;;
29908;SDS011;36247;51.952;6.146;2023-08-17T00:40:48;11.05;;;4.38;;
29908;SDS011;36247;51.952;6.146;2023-08-17T00:43:16;10.63;;;3.83;;
29908;SDS011;36247;51.952;6.146;2023-08-17T00:45:42;8.55;;;3.85;;
29908;SDS011;36247;51.952;6.146;2023-08-17T00:48:11;10.15;;;3.97;;
29908;SDS011;36247;51.952;6.146;2023-08-17T00:50:38;7.68;;;3.72;;
29908;SDS011;36247;51.952;6.146;2023-08-17T00:53:06;6.03;;;4.18;;
29908;SDS011;36247;51.952;6.146;2023-08-17T00:55:35;10.27;;;4.20;;
29908;SDS011;36247;51.952;6.146;2023-08-17T00:58:01;9.10;;;4.60;;
29908;SDS011;36247;51.952;6.146;2023-08-17T01:00:26;8.32;;;4.22;;
29908;SDS011;36247;51.952;6.146;2023-08-17T01:02:53;7.78;;;4.28;;
29908;SDS011;36247;51.952;6.146;2023-08-17T01:05:18;9.27;;;4.63;;
29908;SDS011;36247;51.952;6.146;2023-08-17T01:07:45;8.70;;;4.07;;
29908;SDS011;36247;51.952;6.146;2023-08-17T01:10:11;7.70;;;4.03;;
29908;SDS011;36247;51.952;6.146;2023-08-17T01:20:34;9.90;;;4.10;;
29908;SDS011;36247;51.952;6.146;2023-08-17T01:23:05;9.15;;;3.92;;
29908;SDS011;36247;51.952;6.146;2023-08-17T01:25:36;5.40;;;3.80;;
29908;SDS011;36247;51.952;6.146;2023-08-17T01:28:04;6.75;;;4.30;;
29908;SDS011;36247;51.952;6.146;2023-08-17T01:30:36;7.18;;;3.50;;
29908;SDS011;36247;51.952;6.146;2023-08-17T01:33:11;6.03;;;4.00;;
29908;SDS011;36247;51.952;6.146;2023-08-17T01:35:48;6.55;;;3.70;;
29908;SDS011;36247;51.952;6.146;2023-08-17T01:38:23;6.47;;;3.70;;
29908;SDS011;36247;51.952;6.146;2023-08-17T01:40:50;7.00;;;3.60;;
29908;SDS011;36247;51.952;6.146;2023-08-17T01:43:18;8.88;;;4.43;;
29908;SDS011;36247;51.952;6.146;2023-08-17T01:45:45;9.82;;;3.70;;
29908;SDS011;36247;51.952;6.146;2023-08-17T01:48:11;10.20;;;4.57;;
29908;SDS011;36247;51.952;6.146;2023-08-17T01:50:37;8.43;;;3.53;;
29908;SDS011;36247;51.952;6.146;2023-08-17T01:53:02;6.35;;;3.60;;
29908;SDS011;36247;51.952;6.146;2023-08-17T01:55:28;8.30;;;4.60;;
29908;SDS011;36247;51.952;6.146;2023-08-17T01:57:55;7.50;;;4.07;;
29908;SDS011;36247;51.952;6.146;2023-08-17T02:00:21;10.05;;;5.38;;
29908;SDS011;36247;51.952;6.146;2023-08-17T02:02:46;5.78;;;4.47;;
29908;SDS011;36247;51.952;6.146;2023-08-17T02:05:12;8.85;;;4.25;;
29908;SDS011;36247;51.952;6.146;2023-08-17T02:07:38;11.30;;;4.80;;
29908;SDS011;36247;51.952;6.146;2023-08-17T02:10:03;5.78;;;4.22;;
29908;SDS011;36247;51.952;6.146;2023-08-17T02:12:31;7.90;;;4.57;;
29908;SDS011;36247;51.952;6.146;2023-08-17T02:14:56;11.45;;;5.18;;
29908;SDS011;36247;51.952;6.146;2023-08-17T02:17:22;8.90;;;4.30;;
29908;SDS011;36247;51.952;6.146;2023-08-17T02:19:47;8.77;;;4.35;;
29908;SDS011;36247;51.952;6.146;2023-08-17T02:22:14;10.57;;;5.47;;
29908;SDS011;36247;51.952;6.146;2023-08-17T02:24:41;6.65;;;4.57;;
29908;SDS011;36247;51.952;6.146;2023-08-17T02:27:09;6.60;;;4.50;;
29908;SDS011;36247;51.952;6.146;2023-08-17T02:29:34;12.55;;;4.60;;
29908;SDS011;36247;51.952;6.146;2023-08-17T02:32:00;7.93;;;4.47;;
29908;SDS011;36247;51.952;6.146;2023-08-17T02:34:26;7.75;;;4.43;;
29908;SDS011;36247;51.952;6.146;2023-08-17T02:36:52;9.05;;;4.60;;
29908;SDS011;36247;51.952;6.146;2023-08-17T02:39:17;10.90;;;4.00;;
29908;SDS011;36247;51.952;6.146;2023-08-17T02:41:43;12.10;;;4.60;;
29908;SDS011;36247;51.952;6.146;2023-08-17T02:44:10;6.75;;;4.03;;
29908;SDS011;36247;51.952;6.146;2023-08-17T02:46:36;9.45;;;4.30;;
29908;SDS011;36247;51.952;6.146;2023-08-17T02:49:01;8.07;;;4.43;;
29908;SDS011;36247;51.952;6.146;2023-08-17T02:51:28;7.35;;;4.63;;
29908;SDS011;36247;51.952;6.146;2023-08-17T02:53:53;9.07;;;4.47;;
29908;SDS011;36247;51.952;6.146;2023-08-17T02:56:19;11.57;;;4.47;;
29908;SDS011;36247;51.952;6.146;2023-08-17T02:58:46;12.85;;;4.88;;
29908;SDS011;36247;51.952;6.146;2023-08-17T03:01:12;9.15;;;4.07;;
29908;SDS011;36247;51.952;6.146;2023-08-17T03:03:38;5.13;;;3.65;;
29908;SDS011;36247;51.952;6.146;2023-08-17T03:06:04;8.77;;;4.68;;
29908;SDS011;36247;51.952;6.146;2023-08-17T03:08:31;8.50;;;4.85;;
29908;SDS011;36247;51.952;6.146;2023-08-17T03:10:57;7.88;;;3.97;;
29908;SDS011;36247;51.952;6.146;2023-08-17T03:13:22;5.75;;;4.82;;
29908;SDS011;36247;51.952;6.146;2023-08-17T03:15:48;10.48;;;4.60;;
29908;SDS011;36247;51.952;6.146;2023-08-17T03:18:16;6.15;;;4.07;;
29908;SDS011;36247;51.952;6.146;2023-08-17T03:20:43;7.68;;;4.28;;
29908;SDS011;36247;51.952;6.146;2023-08-17T03:23:11;8.32;;;4.07;;
29908;SDS011;36247;51.952;6.146;2023-08-17T03:25:37;7.35;;;4.35;;
29908;SDS011;36247;51.952;6.146;2023-08-17T03:28:03;7.63;;;4.20;;
29908;SDS011;36247;51.952;6.146;2023-08-17T03:30:32;9.80;;;4.38;;
29908;SDS011;36247;51.952;6.146;2023-08-17T03:33:00;9.20;;;4.35;;
29908;SDS011;36247;51.952;6.146;2023-08-17T03:35:25;5.28;;;4.15;;
29908;SDS011;36247;51.952;6.146;2023-08-17T03:37:51;12.77;;;5.35;;
29908;SDS011;36247;51.952;6.146;2023-08-17T03:40:17;11.80;;;5.00;;
29908;SDS011;36247;51.952;6.146;2023-08-17T03:42:42;10.55;;;4.30;;
29908;SDS011;36247;51.952;6.146;2023-08-17T03:45:08;12.20;;;4.57;;
29908;SDS011;36247;51.952;6.146;2023-08-17T03:47:34;6.65;;;4.03;;
29908;SDS011;36247;51.952;6.146;2023-08-17T03:50:00;10.40;;;4.72;;
29908;SDS011;36247;51.952;6.146;2023-08-17T03:52:25;9.65;;;5.53;;
29908;SDS011;36247;51.952;6.146;2023-08-17T03:54:51;10.38;;;4.70;;
29908;SDS011;36247;51.952;6.146;2023-08-17T03:57:16;7.93;;;4.35;;
29908;SDS011;36247;51.952;6.146;2023-08-17T03:59:42;11.13;;;4.75;;
29908;SDS011;36247;51.952;6.146;2023-08-17T04:02:07;10.07;;;4.85;;
29908;SDS011;36247;51.952;6.146;2023-08-17T04:04:33;10.18;;;4.70;;
29908;SDS011;36247;51.952;6.146;2023-08-17T04:06:58;9.80;;;4.95;;
29908;SDS011;36247;51.952;6.146;2023-08-17T04:09:28;8.48;;;4.82;;
29908;SDS011;36247;51.952;6.146;2023-08-17T04:11:53;9.90;;;4.88;;
29908;SDS011;36247;51.952;6.146;2023-08-17T04:14:20;9.25;;;4.70;;
29908;SDS011;36247;51.952;6.146;2023-08-17T04:16:46;12.70;;;5.40;;
29908;SDS011;36247;51.952;6.146;2023-08-17T04:19:12;10.48;;;4.57;;
29908;SDS011;36247;51.952;6.146;2023-08-17T04:21:37;9.20;;;4.75;;
29908;SDS011;36247;51.952;6.146;2023-08-17T04:24:03;6.80;;;4.15;;
29908;SDS011;36247;51.952;6.146;2023-08-17T04:26:30;7.95;;;4.70;;
29908;SDS011;36247;51.952;6.146;2023-08-17T04:28:55;8.43;;;4.85;;
29908;SDS011;36247;51.952;6.146;2023-08-17T04:31:21;8.10;;;5.15;;
29908;SDS011;36247;51.952;6.146;2023-08-17T04:33:55;11.63;;;4.97;;
29908;SDS011;36247;51.952;6.146;2023-08-17T04:36:20;10.25;;;4.65;;
29908;SDS011;36247;51.952;6.146;2023-08-17T04:38:46;10.35;;;4.63;;
29908;SDS011;36247;51.952;6.146;2023-08-17T04:41:11;11.38;;;4.78;;
29908;SDS011;36247;51.952;6.146;2023-08-17T04:43:37;8.25;;;4.65;;
29908;SDS011;36247;51.952;6.146;2023-08-17T04:46:03;7.65;;;3.97;;
29908;SDS011;36247;51.952;6.146;2023-08-17T04:48:28;6.00;;;3.95;;
29908;SDS011;36247;51.952;6.146;2023-08-17T04:50:55;10.18;;;4.68;;
29908;SDS011;36247;51.952;6.146;2023-08-17T04:53:21;10.48;;;4.50;;
29908;SDS011;36247;51.952;6.146;2023-08-17T04:55:48;5.13;;;4.32;;
29908;SDS011;36247;51.952;6.146;2023-08-17T04:58:16;9.85;;;4.07;;
29908;SDS011;36247;51.952;6.146;2023-08-17T05:00:43;7.93;;;4.70;;
29908;SDS011;36247;51.952;6.146;2023-08-17T05:03:11;12.82;;;4.82;;
29908;SDS011;36247;51.952;6.146;2023-08-17T05:05:42;8.15;;;4.88;;
29908;SDS011;36247;51.952;6.146;2023-08-17T05:08:11;12.32;;;4.53;;
29908;SDS011;36247;51.952;6.146;2023-08-17T05:10:37;8.32;;;4.55;;
29908;SDS011;36247;51.952;6.146;2023-08-17T05:13:03;7.38;;;4.45;;
29908;SDS011;36247;51.952;6.146;2023-08-17T05:15:28;9.10;;;4.90;;
29908;SDS011;36247;51.952;6.146;2023-08-17T05:17:56;10.80;;;4.57;;
29908;SDS011;36247;51.952;6.146;2023-08-17T05:20:22;8.70;;;3.95;;
29908;SDS011;36247;51.952;6.146;2023-08-17T05:22:48;8.57;;;5.65;;
29908;SDS011;36247;51.952;6.146;2023-08-17T05:25:13;5.13;;;3.92;;
29908;SDS011;36247;51.952;6.146;2023-08-17T05:27:45;15.10;;;4.97;;
29908;SDS011;36247;51.952;6.146;2023-08-17T05:30:12;10.60;;;4.57;;
29908;SDS011;36247;51.952;6.146;2023-08-17T05:32:39;7.65;;;3.97;;
29908;SDS011;36247;51.952;6.146;2023-08-17T05:35:05;11.75;;;4.40;;
29908;SDS011;36247;51.952;6.146;2023-08-17T05:37:31;11.40;;;4.78;;
29908;SDS011;36247;51.952;6.146;2023-08-17T05:39:58;11.43;;;4.55;;
29908;SDS011;36247;51.952;6.146;2023-08-17T05:42:25;10.70;;;4.97;;
29908;SDS011;36247;51.952;6.146;2023-08-17T05:44:50;12.35;;;4.35;;
29908;SDS011;36247;51.952;6.146;2023-08-17T05:47:16;8.52;;;4.43;;
29908;SDS011;36247;51.952;6.146;2023-08-17T05:49:45;7.15;;;5.00;;
29908;SDS011;36247;51.952;6.146;2023-08-17T05:52:11;9.95;;;4.78;;
29908;SDS011;36247;51.952;6.146;2023-08-17T05:54:37;6.75;;;4.82;;
29908;SDS011;36247;51.952;6.146;2023-08-17T05:57:03;7.40;;;4.70;;
29908;SDS011;36247;51.952;6.146;2023-08-17T05:59:28;9.95;;;5.00;;
29908;SDS011;36247;51.952;6.146;2023-08-17T06:01:55;10.98;;;4.40;;
29908;SDS011;36247;51.952;6.146;2023-08-17T06:04:21;9.93;;;4.63;;
29908;SDS011;36247;51.952;6.146;2023-08-17T06:06:47;7.32;;;4.30;;
29908;SDS011;36247;51.952;6.146;2023-08-17T06:09:12;7.20;;;3.95;;
29908;SDS011;36247;51.952;6.146;2023-08-17T06:11:42;6.40;;;4.30;;
29908;SDS011;36247;51.952;6.146;2023-08-17T06:14:08;7.97;;;5.05;;
29908;SDS011;36247;51.952;6.146;2023-08-17T06:16:33;10.02;;;4.43;;
29908;SDS011;36247;51.952;6.146;2023-08-17T06:19:00;10.00;;;4.93;;
29908;SDS011;36247;51.952;6.146;2023-08-17T06:21:25;9.73;;;4.25;;
29908;SDS011;36247;51.952;6.146;2023-08-17T06:23:51;6.72;;;4.50;;
29908;SDS011;36247;51.952;6.146;2023-08-17T06:26:18;6.18;;;4.22;;
29908;SDS011;36247;51.952;6.146;2023-08-17T06:28:46;7.97;;;4.25;;
29908;SDS011;36247;51.952;6.146;2023-08-17T06:31:14;8.13;;;4.05;;
29908;SDS011;36247;51.952;6.146;2023-08-17T06:33:42;11.13;;;3.90;;
29908;SDS011;36247;51.952;6.146;2023-08-17T06:36:08;9.15;;;4.60;;
29908;SDS011;36247;51.952;6.146;2023-08-17T06:38:33;8.95;;;4.30;;
29908;SDS011;36247;51.952;6.146;2023-08-17T06:41:00;10.38;;;4.55;;
29908;SDS011;36247;51.952;6.146;2023-08-17T06:43:25;8.82;;;4.20;;
29908;SDS011;36247;51.952;6.146;2023-08-17T06:45:51;9.77;;;4.07;;
29908;SDS011;36247;51.952;6.146;2023-08-17T06:48:17;11.10;;;5.47;;
29908;SDS011;36247;51.952;6.146;2023-08-17T06:50:42;10.48;;;4.38;;
29908;SDS011;36247;51.952;6.146;2023-08-17T06:53:08;8.82;;;4.35;;
29908;SDS011;36247;51.952;6.146;2023-08-17T06:55:34;10.00;;;4.88;;
29908;SDS011;36247;51.952;6.146;2023-08-17T06:58:00;11.60;;;5.40;;
29908;SDS011;36247;51.952;6.146;2023-08-17T07:00:25;8.32;;;4.00;;
29908;SDS011;36247;51.952;6.146;2023-08-17T07:02:51;7.97;;;4.25;;
29908;SDS011;36247;51.952;6.146;2023-08-17T07:05:17;9.85;;;4.90;;
29908;SDS011;36247;51.952;6.146;2023-08-17T07:07:46;9.90;;;4.30;;
29908;SDS011;36247;51.952;6.146;2023-08-17T07:10:12;8.15;;;4.40;;
29908;SDS011;36247;51.952;6.146;2023-08-17T07:12:38;9.57;;;4.43;;
29908;SDS011;36247;51.952;6.146;2023-08-17T07:15:04;8.40;;;4.95;;
29908;SDS011;36247;51.952;6.146;2023-08-17T07:17:30;8.52;;;4.10;;
29908;SDS011;36247;51.952;6.146;2023-08-17T07:19:56;8.55;;;4.35;;
29908;SDS011;36247;51.952;6.146;2023-08-17T07:22:21;7.85;;;4.40;;
29908;SDS011;36247;51.952;6.146;2023-08-17T07:24:47;9.85;;;4.47;;
29908;SDS011;36247;51.952;6.146;2023-08-17T07:27:12;7.78;;;3.65;;
29908;SDS011;36247;51.952;6.146;2023-08-17T07:29:38;10.77;;;4.88;;
29908;SDS011;36247;51.952;6.146;2023-08-17T07:32:03;7.57;;;4.15;;
29908;SDS011;36247;51.952;6.146;2023-08-17T07:34:33;6.97;;;3.60;;
29908;SDS011;36247;51.952;6.146;2023-08-17T07:36:59;9.43;;;3.85;;
29908;SDS011;36247;51.952;6.146;2023-08-17T07:39:26;10.05;;;4.25;;
29908;SDS011;36247;51.952;6.146;2023-08-17T07:41:51;13.27;;;3.70;;
29908;SDS011;36247;51.952;6.146;2023-08-17T07:44:17;11.50;;;3.80;;
29908;SDS011;36247;51.952;6.146;2023-08-17T07:46:42;7.50;;;4.53;;
29908;SDS011;36247;51.952;6.146;2023-08-17T07:49:08;13.20;;;4.03;;
29908;SDS011;36247;51.952;6.146;2023-08-17T07:51:33;8.27;;;3.88;;
29908;SDS011;36247;51.952;6.146;2023-08-17T07:54:00;10.90;;;4.82;;
29908;SDS011;36247;51.952;6.146;2023-08-17T07:56:26;13.35;;;4.93;;
29908;SDS011;36247;51.952;6.146;2023-08-17T07:58:53;11.52;;;4.63;;
29908;SDS011;36247;51.952;6.146;2023-08-17T08:01:19;7.90;;;4.25;;
29908;SDS011;36247;51.952;6.146;2023-08-17T08:03:46;13.45;;;4.70;;
29908;SDS011;36247;51.952;6.146;2023-08-17T08:06:12;12.52;;;5.00;;
29908;SDS011;36247;51.952;6.146;2023-08-17T08:08:38;5.90;;;3.72;;
29908;SDS011;36247;51.952;6.146;2023-08-17T08:11:05;6.60;;;3.47;;
29908;SDS011;36247;51.952;6.146;2023-08-17T08:13:31;9.07;;;4.57;;
29908;SDS011;36247;51.952;6.146;2023-08-17T08:15:58;9.00;;;4.75;;
29908;SDS011;36247;51.952;6.146;2023-08-17T08:18:25;11.02;;;4.65;;
29908;SDS011;36247;51.952;6.146;2023-08-17T08:20:51;7.38;;;4.22;;
29908;SDS011;36247;51.952;6.146;2023-08-17T08:23:18;7.95;;;3.72;;
29908;SDS011;36247;51.952;6.146;2023-08-17T08:25:43;11.05;;;4.65;;
29908;SDS011;36247;51.952;6.146;2023-08-17T08:28:11;14.15;;;5.13;;
29908;SDS011;36247;51.952;6.146;2023-08-17T08:30:37;8.63;;;4.53;;
29908;SDS011;36247;51.952;6.146;2023-08-17T08:33:03;9.60;;;4.40;;
29908;SDS011;36247;51.952;6.146;2023-08-17T08:35:29;7.18;;;4.40;;
29908;SDS011;36247;51.952;6.146;2023-08-17T08:37:55;9.05;;;4.90;;
29908;SDS011;36247;51.952;6.146;2023-08-17T08:40:26;5.82;;;4.35;;
29908;SDS011;36247;51.952;6.146;2023-08-17T08:42:55;12.60;;;5.88;;
29908;SDS011;36247;51.952;6.146;2023-08-17T08:45:22;10.23;;;5.05;;
29908;SDS011;36247;51.952;6.146;2023-08-17T08:47:48;11.02;;;4.47;;
29908;SDS011;36247;51.952;6.146;2023-08-17T08:50:18;8.32;;;4.88;;
29908;SDS011;36247;51.952;6.146;2023-08-17T08:52:53;9.93;;;5.03;;
29908;SDS011;36247;51.952;6.146;2023-08-17T08:55:29;7.00;;;4.55;;
29908;SDS011;36247;51.952;6.146;2023-08-17T09:00:24;9.70;;;5.32;;
29908;SDS011;36247;51.952;6.146;2023-08-17T09:02:50;7.63;;;4.82;;
29908;SDS011;36247;51.952;6.146;2023-08-17T09:05:17;9.82;;;4.95;;
29908;SDS011;36247;51.952;6.146;2023-08-17T09:07:42;8.73;;;4.75;;
29908;SDS011;36247;51.952;6.146;2023-08-17T09:10:09;9.75;;;5.28;;
29908;SDS011;36247;51.952;6.146;2023-08-17T09:12:35;13.43;;;6.15;;
29908;SDS011;36247;51.952;6.146;2023-08-17T09:15:01;10.98;;;6.47;;
29908;SDS011;36247;51.952;6.146;2023-08-17T09:17:27;11.88;;;6.20;;
29908;SDS011;36247;51.952;6.146;2023-08-17T09:19:53;11.40;;;6.40;;
29908;SDS011;36247;51.952;6.146;2023-08-17T09:22:23;13.30;;;6.55;;
29908;SDS011;36247;51.952;6.146;2023-08-17T09:24:50;9.75;;;6.25;;
29908;SDS011;36247;51.952;6.146;2023-08-17T09:27:16;12.13;;;6.00;;
29908;SDS011;36247;51.952;6.146;2023-08-17T09:29:43;14.48;;;6.50;;
29908;SDS011;36247;51.952;6.146;2023-08-17T09:32:14;9.75;;;5.95;;
29908;SDS011;36247;51.952;6.146;2023-08-17T09:34:43;14.45;;;6.45;;
29908;SDS011;36247;51.952;6.146;2023-08-17T09:37:12;10.98;;;6.25;;
29908;SDS011;36247;51.952;6.146;2023-08-17T09:39:38;13.35;;;6.10;;
29908;SDS011;36247;51.952;6.146;2023-08-17T09:42:05;11.75;;;6.38;;
29908;SDS011;36247;51.952;6.146;2023-08-17T09:44:33;13.40;;;6.82;;
29908;SDS011;36247;51.952;6.146;2023-08-17T09:46:59;10.55;;;6.75;;
29908;SDS011;36247;51.952;6.146;2023-08-17T09:49:25;12.70;;;6.18;;
29908;SDS011;36247;51.952;6.146;2023-08-17T09:51:50;12.63;;;6.55;;
29908;SDS011;36247;51.952;6.146;2023-08-17T09:54:23;15.52;;;7.32;;
29908;SDS011;36247;51.952;6.146;2023-08-17T09:56:50;15.20;;;7.43;;
29908;SDS011;36247;51.952;6.146;2023-08-17T09:59:17;10.98;;;6.78;;
29908;SDS011;36247;51.952;6.146;2023-08-17T10:01:42;14.20;;;7.30;;
29908;SDS011;36247;51.952;6.146;2023-08-17T10:04:11;11.25;;;7.07;;
29908;SDS011;36247;51.952;6.146;2023-08-17T10:06:42;16.75;;;7.72;;
29908;SDS011;36247;51.952;6.146;2023-08-17T10:09:08;14.85;;;7.93;;
29908;SDS011;36247;51.952;6.146;2023-08-17T10:11:37;14.43;;;8.70;;
29908;SDS011;36247;51.952;6.146;2023-08-17T10:14:18;16.05;;;7.85;;
29908;SDS011;36247;51.952;6.146;2023-08-17T10:17:00;15.63;;;8.18;;
29908;SDS011;36247;51.952;6.146;2023-08-17T10:19:33;14.90;;;8.00;;
29908;SDS011;36247;51.952;6.146;2023-08-17T10:22:43;16.27;;;8.15;;
29908;SDS011;36247;51.952;6.146;2023-08-17T10:25:17;13.95;;;7.82;;
29908;SDS011;36247;51.952;6.146;2023-08-17T10:27:47;18.38;;;8.82;;
29908;SDS011;36247;51.952;6.146;2023-08-17T10:30:17;14.63;;;8.60;;
29908;SDS011;36247;51.952;6.146;2023-08-17T10:32:42;12.05;;;7.72;;
29908;SDS011;36247;51.952;6.146;2023-08-17T10:35:11;16.23;;;8.38;;
29908;SDS011;36247;51.952;6.146;2023-08-17T10:37:40;13.05;;;7.32;;
29908;SDS011;36247;51.952;6.146;2023-08-17T10:40:06;13.40;;;8.10;;
29908;SDS011;36247;51.952;6.146;2023-08-17T10:42:35;24.08;;;9.73;;
29908;SDS011;36247;51.952;6.146;2023-08-17T10:45:46;14.18;;;9.40;;
29908;SDS011;36247;51.952;6.146;2023-08-17T10:47:47;16.17;;;9.18;;
29908;SDS011;36247;51.952;6.146;2023-08-17T10:50:23;14.63;;;8.80;;
29908;SDS011;36247;51.952;6.146;2023-08-17T10:52:50;16.17;;;9.57;;
29908;SDS011;36247;51.952;6.146;2023-08-17T10:55:20;15.55;;;9.35;;
29908;SDS011;36247;51.952;6.146;2023-08-17T10:58:05;12.85;;;8.73;;
29908;SDS011;36247;51.952;6.146;2023-08-17T11:00:33;16.30;;;9.00;;
29908;SDS011;36247;51.952;6.146;2023-08-17T11:03:03;15.50;;;8.35;;
29908;SDS011;36247;51.952;6.146;2023-08-17T11:05:47;13.23;;;9.13;;
29908;SDS011;36247;51.952;6.146;2023-08-17T11:11:06;12.82;;;9.32;;
29908;SDS011;36247;51.952;6.146;2023-08-17T11:13:35;16.67;;;9.50;;
29908;SDS011;36247;51.952;6.146;2023-08-17T11:16:04;16.33;;;9.00;;
29908;SDS011;36247;51.952;6.146;2023-08-17T11:18:31;14.05;;;9.10;;
29908;SDS011;36247;51.952;6.146;2023-08-17T11:20:59;12.55;;;9.27;;
29908;SDS011;36247;51.952;6.146;2023-08-17T11:23:30;17.50;;;9.57;;
29908;SDS011;36247;51.952;6.146;2023-08-17T11:25:56;14.23;;;8.82;;
29908;SDS011;36247;51.952;6.146;2023-08-17T11:28:22;15.98;;;10.02;;
29908;SDS011;36247;51.952;6.146;2023-08-17T11:30:58;15.23;;;10.35;;
29908;SDS011;36247;51.952;6.146;2023-08-17T11:33:25;15.10;;;9.40;;
29908;SDS011;36247;51.952;6.146;2023-08-17T11:35:54;17.30;;;10.48;;
29908;SDS011;36247;51.952;6.146;2023-08-17T11:38:20;15.30;;;10.77;;
29908;SDS011;36247;51.952;6.146;2023-08-17T11:40:46;14.68;;;10.13;;
29908;SDS011;36247;51.952;6.146;2023-08-17T11:43:12;16.27;;;10.68;;
29908;SDS011;36247;51.952;6.146;2023-08-17T11:45:38;16.02;;;11.15;;
29908;SDS011;36247;51.952;6.146;2023-08-17T11:48:06;19.35;;;11.30;;
29908;SDS011;36247;51.952;6.146;2023-08-17T11:50:33;16.67;;;10.65;;
29908;SDS011;36247;51.952;6.146;2023-08-17T11:52:59;15.93;;;10.75;;
29908;SDS011;36247;51.952;6.146;2023-08-17T11:55:26;17.70;;;12.00;;
29908;SDS011;36247;51.952;6.146;2023-08-17T11:57:52;15.45;;;11.95;;
29908;SDS011;36247;51.952;6.146;2023-08-17T12:00:19;18.48;;;12.15;;
29908;SDS011;36247;51.952;6.146;2023-08-17T12:02:49;14.30;;;11.77;;
29908;SDS011;36247;51.952;6.146;2023-08-17T12:05:22;14.95;;;11.82;;
29908;SDS011;36247;51.952;6.146;2023-08-17T12:07:54;17.80;;;12.45;;
29908;SDS011;36247;51.952;6.146;2023-08-17T12:10:20;14.13;;;12.13;;
29908;SDS011;36247;51.952;6.146;2023-08-17T12:12:47;18.27;;;12.45;;
29908;SDS011;36247;51.952;6.146;2023-08-17T12:15:16;15.20;;;12.27;;
29908;SDS011;36247;51.952;6.146;2023-08-17T12:17:46;15.38;;;11.85;;
29908;SDS011;36247;51.952;6.146;2023-08-17T12:20:18;13.90;;;11.73;;
29908;SDS011;36247;51.952;6.146;2023-08-17T12:22:46;18.15;;;12.95;;
29908;SDS011;36247;51.952;6.146;2023-08-17T12:25:13;15.27;;;11.52;;
29908;SDS011;36247;51.952;6.146;2023-08-17T12:28:05;13.77;;;11.95;;
29908;SDS011;36247;51.952;6.146;2023-08-17T12:30:35;16.77;;;12.02;;
29908;SDS011;36247;51.952;6.146;2023-08-17T12:33:03;18.63;;;11.95;;
29908;SDS011;36247;51.952;6.146;2023-08-17T12:35:31;15.35;;;11.80;;
29908;SDS011;36247;51.952;6.146;2023-08-17T12:37:58;14.32;;;12.13;;
29908;SDS011;36247;51.952;6.146;2023-08-17T12:40:23;25.10;;;13.13;;
29908;SDS011;36247;51.952;6.146;2023-08-17T12:42:49;14.45;;;11.65;;
29908;SDS011;36247;51.952;6.146;2023-08-17T12:45:15;15.90;;;11.65;;
29908;SDS011;36247;51.952;6.146;2023-08-17T12:47:42;15.55;;;11.98;;
29908;SDS011;36247;51.952;6.146;2023-08-17T12:50:08;15.27;;;11.93;;
29908;SDS011;36247;51.952;6.146;2023-08-17T12:52:34;16.60;;;12.98;;
29908;SDS011;36247;51.952;6.146;2023-08-17T12:55:00;17.30;;;12.00;;
29908;SDS011;36247;51.952;6.146;2023-08-17T12:57:25;17.35;;;12.40;;
29908;SDS011;36247;51.952;6.146;2023-08-17T12:59:52;16.05;;;12.30;;
29908;SDS011;36247;51.952;6.146;2023-08-17T13:02:19;15.18;;;12.43;;
29908;SDS011;36247;51.952;6.146;2023-08-17T13:04:46;16.95;;;12.63;;
29908;SDS011;36247;51.952;6.146;2023-08-17T13:07:12;13.95;;;12.55;;
29908;SDS011;36247;51.952;6.146;2023-08-17T13:09:37;16.98;;;12.90;;
29908;SDS011;36247;51.952;6.146;2023-08-17T13:12:03;18.75;;;12.93;;
29908;SDS011;36247;51.952;6.146;2023-08-17T13:14:29;16.23;;;13.45;;
29908;SDS011;36247;51.952;6.146;2023-08-17T13:16:55;16.27;;;13.18;;
29908;SDS011;36247;51.952;6.146;2023-08-17T13:19:21;17.55;;;13.63;;
29908;SDS011;36247;51.952;6.146;2023-08-17T13:21:46;16.40;;;12.65;;
29908;SDS011;36247;51.952;6.146;2023-08-17T13:24:12;15.38;;;13.48;;
29908;SDS011;36247;51.952;6.146;2023-08-17T13:26:37;21.38;;;13.40;;
29908;SDS011;36247;51.952;6.146;2023-08-17T13:29:03;17.73;;;12.35;;
29908;SDS011;36247;51.952;6.146;2023-08-17T13:31:30;15.30;;;13.40;;
29908;SDS011;36247;51.952;6.146;2023-08-17T13:34:00;14.90;;;13.00;;
29908;SDS011;36247;51.952;6.146;2023-08-17T13:36:25;15.30;;;12.25;;
29908;SDS011;36247;51.952;6.146;2023-08-17T13:38:51;13.80;;;12.30;;
29908;SDS011;36247;51.952;6.146;2023-08-17T13:41:16;15.43;;;13.15;;
29908;SDS011;36247;51.952;6.146;2023-08-17T13:43:42;15.80;;;12.63;;
29908;SDS011;36247;51.952;6.146;2023-08-17T13:46:08;15.10;;;13.52;;
29908;SDS011;36247;51.952;6.146;2023-08-17T13:48:33;15.57;;;13.90;;
29908;SDS011;36247;51.952;6.146;2023-08-17T13:51:00;16.70;;;14.38;;
29908;SDS011;36247;51.952;6.146;2023-08-17T13:53:25;18.70;;;13.82;;
29908;SDS011;36247;51.952;6.146;2023-08-17T13:55:51;15.95;;;14.25;;
29908;SDS011;36247;51.952;6.146;2023-08-17T13:58:17;15.52;;;14.00;;
29908;SDS011;36247;51.952;6.146;2023-08-17T14:00:42;19.08;;;15.77;;
29908;SDS011;36247;51.952;6.146;2023-08-17T14:03:11;18.77;;;15.27;;
29908;SDS011;36247;51.952;6.146;2023-08-17T14:05:37;18.23;;;14.10;;
29908;SDS011;36247;51.952;6.146;2023-08-17T14:08:02;17.58;;;14.50;;
29908;SDS011;36247;51.952;6.146;2023-08-17T14:10:30;20.00;;;16.67;;
29908;SDS011;36247;51.952;6.146;2023-08-17T14:12:55;18.63;;;15.02;;
29908;SDS011;36247;51.952;6.146;2023-08-17T14:15:21;19.10;;;15.13;;
29908;SDS011;36247;51.952;6.146;2023-08-17T14:17:47;18.40;;;15.07;;
29908;SDS011;36247;51.952;6.146;2023-08-17T14:20:16;17.15;;;15.35;;
29908;SDS011;36247;51.952;6.146;2023-08-17T14:22:41;19.27;;;14.70;;
29908;SDS011;36247;51.952;6.146;2023-08-17T14:25:07;16.58;;;14.93;;
29908;SDS011;36247;51.952;6.146;2023-08-17T14:27:32;21.25;;;16.23;;
29908;SDS011;36247;51.952;6.146;2023-08-17T14:29:58;24.00;;;16.65;;
29908;SDS011;36247;51.952;6.146;2023-08-17T14:32:28;23.60;;;16.92;;
29908;SDS011;36247;51.952;6.146;2023-08-17T14:34:54;20.65;;;17.27;;
29908;SDS011;36247;51.952;6.146;2023-08-17T14:37:19;24.25;;;17.45;;
29908;SDS011;36247;51.952;6.146;2023-08-17T14:39:45;18.83;;;16.88;;
29908;SDS011;36247;51.952;6.146;2023-08-17T14:42:11;23.25;;;17.77;;
29908;SDS011;36247;51.952;6.146;2023-08-17T14:44:37;20.55;;;18.38;;
29908;SDS011;36247;51.952;6.146;2023-08-17T14:47:03;21.55;;;17.80;;
29908;SDS011;36247;51.952;6.146;2023-08-17T14:49:29;26.10;;;18.42;;
29908;SDS011;36247;51.952;6.146;2023-08-17T14:51:55;20.60;;;17.02;;